Предлагаем Вашему вниманию английскую версию страницы: AUTOTAF.ME 17248 - aviation weather forecast Konya

AUTOTAF 17248 - авиапрогноз Konya

Сегодня рассвет 04:11 UTC, восход солнца 04:40 UTC,
местный полдень 09:33 UTC, заход солнца 14:25 UTC,
наступление темноты 14:54 UTC.

Краткий прогноз 17248 на 9 часов

AUTOTAF.ME 17248 020800Z 0209/0218 VRB02MPS 0100 HZ OVC001

Детальный прогноз 17248 на 24 часа

AUTOTAF.ME 17248 020800Z 0209/0309 VRB02MPS 0100 HZ OVC001 TXM273/0209Z TNM273/0209Z

Подробный табличный прогноз

Время (UTC) miniAUTOTAF на 3 ч WX FZLVL
M AGL
ICE TURB Т
(°С)
Тd
(°С)
f(%) QNH
(гПа)
WIND/T


Широта 37.5°, долгота 34.1°, высота 1044 м абс.
Средняя высота рельефа местности 0 м абс.
Прогнозы обновляются четыре раза в сутки: в 02, 08, 14, 20 ч всемирного времени.


Выбрать прогноз по другой модели Konya
Онлайн-сводка гроз по Konya (для РФ и ближнего зарубежья)
Карта фактических гроз в окрестностях Konya
Динамические прогностические карты (ventusky.com)
Прогностическая карта высоты нижней границы облаков по Konya (windy.com)
Выбрать другой город

Прогноз предназначен для личного научно-познавательного использования частными лицами
и не предназначен для принятия важных решений и выполнения реальных полётов воздушных судов

При копировании или ином использовании любых материалов данного сайта ссылка на © meteocenter.asia обязательна.

0.23/0.3